Time;durP1;ratioP1;P1;durP2;ratioP2;P2;SDS_P1;SDS_P2;PMS_P1;PMS_P2;Temp;Humidity;BMP_temperature;BMP_pressure;BME280_temperature;BME280_humidity;BME280_pressure;Samples;Min_cycle;Max_cycle;Signal;HPM_P1;HPM_P2
2022/04/07 00:50:34;;;;;;;13.10;6.22;;;435.30;1792.00;;;;;;4789020;30;20059;-83
2022/04/07 00:53:06;;;;;;;11.35;5.80;;;435.20;1817.60;;;;;;4815432;29;20075;-84
2022/04/07 00:55:33;;;;;;;11.90;6.82;;;435.20;1792.00;;;;;;4847866;29;20025;-84
2022/04/07 00:58:25;;;;;;;20.83;11.65;;;410.50;1817.60;;;;;;4847741;29;20120;-83
2022/04/07 01:08:31;;;;;;;18.48;7.32;;;410.50;1817.60;;;;;;4753394;30;20478;-82
2022/04/07 01:10:59;;;;;;;15.93;6.20;;;410.40;1817.60;;;;;;4738436;30;20060;-84
2022/04/07 01:13:57;;;;;;;14.68;5.47;;;410.40;1817.60;;;;;;4773399;29;20042;-83
2022/04/07 01:16:50;;;;;;;13.20;4.63;;;410.30;1817.60;;;;;;4847619;29;20040;-85
2022/04/07 01:19:15;;;;;;;14.45;4.25;;;410.20;1817.60;;;;;;4863464;29;20042;-84
2022/04/07 01:21:44;;;;;;;13.80;5.30;;;409.90;1817.60;;;;;;4847420;29;20022;-84
2022/04/07 01:24:14;;;;;;;11.75;5.15;;;410.20;1843.20;;;;;;4847391;29;20121;-84
2022/04/07 01:26:48;;;;;;;11.98;4.53;;;410.20;1843.20;;;;;;4864194;29;20029;-83
2022/04/07 01:29:27;;;;;;;13.63;4.75;;;410.10;1843.20;;;;;;4847167;29;20025;-85
2022/04/07 01:32:10;;;;;;;13.45;4.85;;;410.00;1843.20;;;;;;4847241;29;20037;-84
2022/04/07 01:37:34;;;;;;;10.07;5.20;;;410.00;1843.20;;;;;;4834264;29;20498;-83
2022/04/07 01:40:01;;;;;;;11.30;5.25;;;410.00;1843.20;;;;;;4847164;29;20026;-86
2022/04/07 01:42:48;;;;;;;11.82;4.22;;;410.00;1868.80;;;;;;4846889;29;20032;-86
2022/04/07 01:46:10;;;;;;;;;;;;;;;;;;;;;
2022/04/07 01:49:25;;;;;;;;;;;;;;;;;;;;;
2022/04/07 02:10:28;;;;;;;;;;;;;;;;;;;;;
2022/04/07 02:13:54;;;;;;;;;;;;;;;;;;;;;
2022/04/07 02:17:03;;;;;;;10.18;4.07;;;409.80;1894.40;;;;;;4734526;30;20055;-83
2022/04/07 02:19:33;;;;;;;13.30;4.47;;;409.80;1894.40;;;;;;4737004;30;20070;-85
2022/04/07 02:21:59;;;;;;;12.50;6.50;;;409.80;1894.40;;;;;;4811552;29;20483;-84
2022/04/07 02:24:25;;;;;;;13.15;5.53;;;410.30;1894.40;;;;;;4843416;29;20562;-84
2022/04/07 02:26:51;;;;;;;14.43;4.63;;;409.70;1894.40;;;;;;4843550;29;20471;-85
2022/04/07 02:29:44;;;;;;;12.82;4.90;;;409.70;1894.40;;;;;;4843739;29;20391;-85
2022/04/07 02:32:28;;;;;;;13.98;4.70;;;409.70;1894.40;;;;;;4843024;29;20086;-83
2022/04/07 02:34:54;;;;;;;15.88;5.70;;;409.70;1894.40;;;;;;4842584;29;20033;-83
2022/04/07 02:37:20;;;;;;;15.32;5.22;;;409.70;1894.40;;;;;;4832011;29;20070;-84
2022/04/07 02:39:53;;;;;;;18.10;4.55;;;409.70;1894.40;;;;;;4866085;29;20042;-83
2022/04/07 02:42:28;;;;;;;18.45;4.82;;;409.70;1920.00;;;;;;4866313;29;20098;-82
2022/04/07 02:45:03;;;;;;;14.40;4.97;;;409.70;1920.00;;;;;;4864225;29;20034;-82
2022/04/07 02:47:51;;;;;;;13.75;4.93;;;409.70;1920.00;;;;;;4864710;29;20063;-82
2022/04/07 02:51:05;;;;;;;;;;;;;;;;;;;;;
2022/04/07 03:01:36;;;;;;;19.10;6.53;;;409.70;1920.00;;;;;;4706345;30;20127;-84
2022/04/07 03:05:13;;;;;;;15.95;4.70;;;409.60;1945.60;;;;;;4719054;30;20491;-85
2022/04/07 03:12:41;;;;;;;;;;;;;;;;;;;;;
2022/04/07 03:16:53;;;;;;;;;;;;;;;;;;;;;
2022/04/07 03:33:21;;;;;;;30.52;17.17;;;384.30;1945.60;;;;;;4647744;30;20100;-84
2022/04/07 03:46:09;;;;;;;36.15;17.35;;;359.10;1971.20;;;;;;4670100;30;20030;-83
2022/04/07 03:48:36;;;;;;;27.10;12.35;;;358.80;1996.80;;;;;;4739161;30;20086;-82
2022/04/07 03:51:02;;;;;;;32.00;13.55;;;358.70;1996.80;;;;;;4826908;29;20038;-84
2022/04/07 03:54:47;;;;;;;29.63;11.52;;;358.60;2022.40;;;;;;4842981;29;20416;-84
2022/04/07 03:56:53;;;;;;;25.38;11.60;;;358.60;2048.00;;;;;;4843962;29;20038;-85
2022/04/07 03:59:21;;;;;;;25.73;13.98;;;358.60;2048.00;;;;;;4833571;29;20086;-84
2022/04/07 04:01:54;;;;;;;31.08;14.48;;;333.70;2048.00;;;;;;4841627;29;20038;-84
2022/04/07 04:04:47;;;;;;;28.42;11.77;;;358.50;2048.00;;;;;;4827910;29;20034;-83
2022/04/07 04:14:52;;;;;;;31.25;12.98;;;358.50;2073.60;;;;;;4842812;29;20080;-85
2022/04/07 04:17:27;;;;;;;25.75;11.85;;;358.60;2124.80;;;;;;4840746;29;20042;-86
2022/04/07 04:22:40;;;;;;;22.20;13.82;;;358.50;2099.20;;;;;;4848684;29;20074;-85
2022/04/07 04:25:23;;;;;;;27.45;14.48;;;358.60;2176.00;;;;;;4832571;29;20022;-85
2022/04/07 04:27:50;;;;;;;26.90;14.93;;;358.60;2201.60;;;;;;4848177;29;20109;-87
2022/04/07 04:30:18;;;;;;;23.63;12.07;;;358.70;2176.00;;;;;;4848004;29;20394;-86
2022/04/07 04:32:44;;;;;;;26.00;12.88;;;358.80;2124.80;;;;;;4847418;29;20034;-84
2022/04/07 04:35:13;;;;;;;35.92;19.20;;;358.90;2201.60;;;;;;4847954;29;20082;-86
2022/04/07 04:37:40;;;;;;;31.40;20.17;;;358.70;2124.80;;;;;;4847782;29;20124;-84
2022/04/07 04:44:45;;;;;;;32.67;21.77;;;358.60;2150.40;;;;;;4756643;30;20028;-84
2022/04/07 04:47:12;;;;;;;38.08;22.17;;;358.50;2150.40;;;;;;4733608;30;20090;-84
2022/04/07 04:53:41;;;;;;;49.80;28.20;;;358.50;2176.00;;;;;;4773745;30;20451;-84
2022/04/07 04:56:13;;;;;;;41.60;22.58;;;358.60;2201.60;;;;;;4789213;29;20047;-84
2022/04/07 04:58:40;;;;;;;31.38;15.93;;;358.60;2201.60;;;;;;4826605;29;20069;-85
2022/04/07 05:01:06;;;;;;;31.60;13.95;;;358.70;2150.40;;;;;;4847300;29;20087;-86
2022/04/07 05:03:35;;;;;;;24.10;12.65;;;358.80;2150.40;;;;;;4832280;29;20037;-85
2022/04/07 05:06:29;;;;;;;26.63;11.85;;;358.80;2150.40;;;;;;4847642;29;20037;-87
2022/04/07 05:09:16;;;;;;;31.65;12.48;;;358.90;2176.00;;;;;;4827954;29;20821;-85
2022/04/07 05:12:02;;;;;;;29.92;15.20;;;358.80;2227.20;;;;;;4828248;29;20131;-84
2022/04/07 05:14:29;;;;;;;32.38;18.63;;;358.50;2252.80;;;;;;4828092;29;20089;-85
2022/04/07 05:17:25;;;;;;;35.53;15.85;;;358.80;2329.60;;;;;;4828160;29;20037;-85
2022/04/07 05:20:56;;;;;;;;;;;;;;;;;;;;;
2022/04/07 05:30:41;;;;;;;42.47;29.60;;;358.60;2329.60;;;;;;4809834;29;20503;-84
2022/04/07 05:33:07;;;;;;;60.72;33.00;;;358.40;2329.60;;;;;;4807339;29;20035;-84
2022/04/07 05:35:37;;;;;;;53.70;29.88;;;358.40;2329.60;;;;;;4805338;29;20090;-85
2022/04/07 05:38:04;;;;;;;46.78;28.70;;;333.70;2329.60;;;;;;4809860;29;20470;-84
2022/04/07 05:40:33;;;;;;;43.03;23.88;;;333.60;2329.60;;;;;;4838432;29;20038;-84
2022/04/07 05:43:01;;;;;;;42.60;22.85;;;333.70;2329.60;;;;;;4828604;29;20030;-83
2022/04/07 05:45:28;;;;;;;23.83;13.02;;;333.70;2329.60;;;;;;4843811;29;20048;-83
2022/04/07 05:47:54;;;;;;;29.15;11.52;;;358.70;2329.60;;;;;;4843683;29;20042;-83
2022/04/07 05:50:20;;;;;;;30.35;16.92;;;333.60;2329.60;;;;;;4844049;29;20475;-83
2022/04/07 05:53:10;;;;;;;27.30;14.60;;;358.50;2329.60;;;;;;4843880;29;20507;-81
2022/04/07 06:03:36;;;;;;;;;;;;;;;;;;;;;
2022/04/07 06:05:46;;;;;;;85.88;61.85;;;333.70;2329.60;;;;;;4819973;29;20046;-81
2022/04/07 06:08:13;;;;;;;69.32;45.28;;;333.70;2329.60;;;;;;4821610;29;20038;-84
2022/04/07 06:10:39;;;;;;;67.15;48.72;;;333.70;2329.60;;;;;;4843601;29;20115;-83
2022/04/07 06:13:05;;;;;;;63.58;42.50;;;333.70;2329.60;;;;;;4843824;29;20113;-81
2022/04/07 06:15:33;;;;;;;47.15;27.10;;;333.70;2329.60;;;;;;4844078;29;20456;-82
2022/04/07 06:17:59;;;;;;;80.95;60.15;;;333.70;2329.60;;;;;;4842926;29;20033;-83
2022/04/07 06:20:25;;;;;;;68.65;48.67;;;358.40;2329.60;;;;;;4827930;29;20038;-83
2022/04/07 06:22:51;;;;;;;49.20;31.52;;;358.40;2329.60;;;;;;4828175;29;20487;-82
2022/04/07 06:25:17;;;;;;;47.22;34.28;;;333.60;2329.60;;;;;;4842934;29;20114;-81
2022/04/07 06:27:45;;;;;;;39.97;23.50;;;358.40;2329.60;;;;;;4843239;29;20030;-83
2022/04/07 06:30:14;;;;;;;39.85;27.23;;;333.70;2329.60;;;;;;4843093;29;20125;-83
2022/04/07 06:32:40;;;;;;;63.10;47.22;;;333.70;2329.60;;;;;;4843073;29;20034;-83
2022/04/07 06:35:14;;;;;;;73.22;59.47;;;333.70;2329.60;;;;;;4843428;29;20471;-83
2022/04/07 06:37:56;;;;;;;72.60;43.42;;;358.40;2329.60;;;;;;4843223;29;20026;-82
2022/04/07 06:40:26;;;;;;;81.95;50.38;;;333.60;2329.60;;;;;;4843024;29;20034;-83
2022/04/07 06:42:54;;;;;;;89.68;58.95;;;333.50;2329.60;;;;;;4843263;29;20038;-80
2022/04/07 06:45:21;;;;;;;123.28;82.00;;;333.50;2329.60;;;;;;4841799;29;20054;-82
2022/04/07 06:47:47;;;;;;;74.47;46.28;;;333.60;2329.60;;;;;;4842606;29;20210;-83
2022/04/07 06:51:03;;;;;;;56.55;38.60;;;333.60;2329.60;;;;;;4842907;29;20066;-82
2022/04/07 06:53:22;;;;;;;62.95;36.45;;;333.60;2329.60;;;;;;4839885;29;20089;-80
2022/04/07 06:56:29;;;;;;;63.33;37.45;;;333.60;2329.60;;;;;;4842760;29;20069;-82
2022/04/07 06:58:55;;;;;;;62.67;39.58;;;333.70;2329.60;;;;;;4842384;29;20042;-82
2022/04/07 07:01:22;;;;;;;70.80;45.65;;;333.40;2329.60;;;;;;4842342;29;20029;-83
2022/04/07 07:03:48;;;;;;;71.22;44.90;;;333.60;2329.60;;;;;;4827856;29;20086;-82
2022/04/07 07:06:14;;;;;;;62.90;37.15;;;333.70;2329.60;;;;;;4827411;29;20022;-83
2022/04/07 07:08:42;;;;;;;51.00;33.42;;;358.40;2329.60;;;;;;4828513;29;20053;-83
2022/04/07 07:11:37;;;;;;;54.13;34.58;;;358.40;2329.60;;;;;;4845558;29;20029;-82
2022/04/07 07:21:20;;;;;;;85.25;62.95;;;358.60;2329.60;;;;;;4829436;29;20057;-83
2022/04/07 07:24:15;;;;;;;60.60;38.00;;;358.80;2329.60;;;;;;4837352;29;20038;-83
2022/04/07 07:29:50;;;;;;;61.17;37.53;;;358.70;2329.60;;;;;;4822732;29;20067;-84
2022/04/07 07:32:25;;;;;;;62.05;38.92;;;359.00;2329.60;;;;;;4842228;29;20122;-82
2022/04/07 07:35:06;;;;;;;57.65;36.67;;;358.80;2329.60;;;;;;4839923;29;20034;-85
2022/04/07 07:37:32;;;;;;;45.53;27.45;;;358.90;2329.60;;;;;;4842228;29;20130;-85
2022/04/07 07:40:15;;;;;;;42.78;23.23;;;359.00;2329.60;;;;;;4842179;29;20030;-84
2022/04/07 07:43:28;;;;;;;28.85;18.25;;;359.10;2329.60;;;;;;4841873;29;20030;-83
2022/04/07 07:46:23;;;;;;;28.48;16.00;;;359.20;2329.60;;;;;;4841829;29;20037;-86
2022/04/07 07:53:20;;;;;;;32.75;14.75;;;384.00;2329.60;;;;;;4768740;30;20035;-85
2022/04/07 07:56:02;;;;;;;29.63;10.80;;;384.20;2329.60;;;;;;4768162;30;20023;-85
2022/04/07 08:01:58;;;;;;;22.20;10.32;;;384.40;2329.60;;;;;;4804953;29;20030;-86
2022/04/07 08:29:10;;;;;;;28.00;12.73;;;384.90;2329.60;;;;;;4768586;30;20492;-86
2022/04/07 08:32:04;;;;;;;26.00;12.80;;;409.60;2355.20;;;;;;4743745;30;20509;-78
2022/04/07 11:05:08;;;;;;;17.92;7.68;;;460.90;2380.80;;;;;;4861984;29;20064;-82
2022/04/07 11:07:55;;;;;;;20.08;6.78;;;461.40;2380.80;;;;;;4845513;29;20105;-81
2022/04/07 11:10:43;;;;;;;16.02;6.85;;;461.60;2380.80;;;;;;4845575;29;20085;-83
2022/04/07 11:13:09;;;;;;;19.27;7.22;;;461.40;2380.80;;;;;;4845419;29;20057;-82
2022/04/07 11:15:55;;;;;;;19.02;7.03;;;461.30;2380.80;;;;;;4845657;29;20066;-82
2022/04/07 11:19:00;;;;;;;20.52;8.75;;;461.20;2380.80;;;;;;4845641;29;20037;-84
2022/04/07 11:21:26;;;;;;;18.13;7.90;;;461.60;2380.80;;;;;;4817382;29;20053;-81
2022/04/07 11:24:14;;;;;;;24.13;7.47;;;486.60;2380.80;;;;;;4844999;29;20034;-80
2022/04/07 11:26:43;;;;;;;17.33;7.32;;;486.80;2380.80;;;;;;4845251;29;20037;-80
2022/04/07 11:29:12;;;;;;;16.75;8.00;;;461.50;2380.80;;;;;;4861883;29;20085;-82
2022/04/07 11:31:43;;;;;;;30.02;10.15;;;461.40;2380.80;;;;;;4844823;29;20041;-80
2022/04/07 11:35:00;;;;;;;27.85;11.00;;;461.40;2380.80;;;;;;4845028;29;20060;-81
2022/04/07 11:37:26;;;;;;;26.33;9.35;;;461.40;2380.80;;;;;;4822909;29;20462;-81
2022/04/07 11:39:53;;;;;;;23.63;12.10;;;461.30;2380.80;;;;;;4812426;29;20063;-83
2022/04/07 11:45:14;;;;;;;21.00;9.02;;;461.40;2380.80;;;;;;4861579;29;20029;-82
2022/04/07 11:47:55;;;;;;;31.27;9.30;;;461.40;2380.80;;;;;;4844625;29;20502;-83
2022/04/07 11:50:26;;;;;;;22.77;7.57;;;461.20;2380.80;;;;;;4830023;29;20040;-83
2022/04/07 11:52:59;;;;;;;21.42;9.13;;;460.90;2380.80;;;;;;4844768;29;20551;-83
2022/04/07 11:55:28;;;;;;;18.10;10.35;;;460.90;2380.80;;;;;;4843614;29;20065;-85
2022/04/07 11:58:19;;;;;;;15.98;8.88;;;461.10;2380.80;;;;;;4845134;29;20033;-82
2022/04/07 12:00:45;;;;;;;28.08;12.38;;;461.20;2380.80;;;;;;4844384;29;20037;-81
2022/04/07 12:03:10;;;;;;;21.52;9.18;;;461.30;2380.80;;;;;;4843999;29;20738;-79
2022/04/07 12:05:40;;;;;;;23.98;11.43;;;461.10;2380.80;;;;;;4844380;29;20038;-82
2022/04/07 12:08:14;;;;;;;23.35;11.63;;;461.10;2380.80;;;;;;4844355;29;20033;-82
2022/04/07 12:10:44;;;;;;;24.33;10.40;;;461.10;2380.80;;;;;;4844801;29;20037;-79
2022/04/07 12:13:11;;;;;;;19.88;10.02;;;460.90;2380.80;;;;;;4844655;29;20069;-82
2022/04/07 12:15:38;;;;;;;24.83;11.00;;;436.10;2355.20;;;;;;4844162;29;20405;-81
2022/04/07 12:18:09;;;;;;;19.42;9.48;;;436.10;2355.20;;;;;;4844754;29;20112;-80
2022/04/07 12:20:36;;;;;;;19.98;12.05;;;460.80;2380.80;;;;;;4844491;29;20061;-79
2022/04/07 12:23:11;;;;;;;23.92;10.43;;;460.90;2380.80;;;;;;4844226;29;20432;-82
2022/04/07 12:25:42;;;;;;;25.90;11.18;;;460.80;2380.80;;;;;;4844515;29;20423;-82
2022/04/07 12:28:14;;;;;;;24.92;10.98;;;436.10;2355.20;;;;;;4844436;29;20029;-81
2022/04/07 12:30:44;;;;;;;21.20;9.40;;;436.10;2355.20;;;;;;4844680;29;20038;-80
2022/04/07 12:33:11;;;;;;;18.10;8.23;;;436.00;2355.20;;;;;;4844718;29;20390;-81
2022/04/07 12:35:47;;;;;;;15.90;8.45;;;435.80;2355.20;;;;;;4844475;29;20173;-81
2022/04/07 12:38:25;;;;;;;29.48;13.25;;;435.60;2355.20;;;;;;4844642;29;20029;-81
2022/04/07 12:41:34;;;;;;;25.27;9.95;;;435.40;2355.20;;;;;;4844598;29;20037;-84
2022/04/07 12:47:59;;;;;;;25.05;16.02;;;435.50;2355.20;;;;;;4807894;29;20035;-83
2022/04/07 12:50:27;;;;;;;23.88;14.77;;;435.80;2355.20;;;;;;4792540;29;20066;-83
2022/04/07 12:52:59;;;;;;;23.33;13.38;;;436.00;2355.20;;;;;;4792982;29;20400;-87
2022/04/07 12:55:41;;;;;;;16.90;11.07;;;435.90;2355.20;;;;;;4811148;29;20075;-83
2022/04/07 12:59:04;;;;;;;20.23;10.25;;;435.80;2355.20;;;;;;4864036;29;20050;-85
2022/04/07 13:02:12;;;;;;;23.07;13.10;;;435.80;2355.20;;;;;;4847798;29;20124;-85
2022/04/07 13:04:59;;;;;;;20.17;12.05;;;435.70;2355.20;;;;;;4825277;29;20034;-84
2022/04/07 13:10:53;;;;;;;22.23;10.98;;;435.60;2355.20;;;;;;4825523;29;20037;-81
2022/04/07 13:13:19;;;;;;;23.30;14.63;;;435.60;2355.20;;;;;;4842160;29;20048;-83
2022/04/07 13:19:08;;;;;;;19.65;10.02;;;435.80;2355.20;;;;;;4874417;29;20033;-80
2022/04/07 13:21:37;;;;;;;20.58;11.35;;;435.80;2355.20;;;;;;4857273;29;20074;-79
2022/04/07 13:24:03;;;;;;;26.05;16.30;;;436.00;2355.20;;;;;;4873806;29;20055;-79
2022/04/07 13:26:29;;;;;;;18.55;10.10;;;436.00;2355.20;;;;;;4857021;29;20037;-80
2022/04/07 13:28:55;;;;;;;23.90;11.07;;;436.00;2355.20;;;;;;4851202;29;20038;-80
2022/04/07 13:31:24;;;;;;;19.50;11.10;;;435.80;2355.20;;;;;;4854330;29;20030;-83
2022/04/07 13:34:10;;;;;;;;;;;;;;;;;;;;;
2022/04/07 13:39:52;;;;;;;33.97;17.90;;;435.80;2355.20;;;;;;4826207;29;20049;-83
2022/04/07 13:42:18;;;;;;;28.02;15.65;;;435.80;2355.20;;;;;;4825009;29;20042;-82
2022/04/07 13:44:53;;;;;;;28.35;16.88;;;435.80;2355.20;;;;;;4843172;29;20121;-83
2022/04/07 13:47:19;;;;;;;27.08;17.60;;;435.80;2355.20;;;;;;4847327;29;20090;-85
2022/04/07 13:49:48;;;;;;;26.10;15.73;;;435.70;2355.20;;;;;;4847678;29;20030;-84
2022/04/07 14:09:45;;;;;;;36.83;20.85;;;435.40;2355.20;;;;;;4807193;29;20106;-81
2022/04/07 14:12:11;;;;;;;36.25;22.42;;;435.40;2355.20;;;;;;4846252;29;20069;-80
2022/04/07 14:14:37;;;;;;;96.10;69.45;;;435.50;2355.20;;;;;;4846375;29;20029;-81
2022/04/07 14:17:03;;;;;;;68.15;48.38;;;435.40;2355.20;;;;;;4846560;29;20065;-81
2022/04/07 14:19:29;;;;;;;39.20;26.67;;;435.50;2355.20;;;;;;4846693;29;20041;-82
2022/04/07 14:25:37;;;;;;;47.75;28.85;;;435.70;2355.20;;;;;;4824003;29;20039;-83
2022/04/07 14:29:02;;;;;;;85.95;59.67;;;435.50;2355.20;;;;;;4808783;29;20135;-85
2022/04/07 14:31:34;;;;;;;34.90;24.13;;;435.30;2355.20;;;;;;4801216;29;20095;-84
2022/04/07 14:34:42;;;;;;;29.20;25.00;;;435.20;2355.20;;;;;;4833409;29;20037;-83
2022/04/07 14:43:53;;;;;;;29.00;16.35;;;435.30;2355.20;;;;;;4824373;29;20026;-79
2022/04/07 14:46:22;;;;;;;31.42;17.98;;;435.30;2355.20;;;;;;4824032;29;20034;-84
2022/04/07 14:49:14;;;;;;;30.52;20.95;;;435.30;2355.20;;;;;;4808169;29;20574;-82
2022/04/07 14:51:40;;;;;;;49.10;37.40;;;435.40;2355.20;;;;;;4822499;29;20038;-81
2022/04/07 14:54:08;;;;;;;26.10;18.42;;;435.30;2355.20;;;;;;4823701;29;20100;-82
2022/04/07 14:56:39;;;;;;;25.63;12.93;;;435.30;2355.20;;;;;;4823257;29;20492;-81
2022/04/07 14:59:29;;;;;;;;;;;;;;;;;;;;;
2022/04/07 15:01:56;;;;;;;31.83;18.13;;;435.30;2355.20;;;;;;4823515;29;20049;-79
2022/04/07 15:04:25;;;;;;;30.83;18.92;;;435.30;2355.20;;;;;;4838376;29;20565;-82
2022/04/07 15:06:54;;;;;;;35.28;21.55;;;435.30;2355.20;;;;;;4845107;29;20125;-81
2022/04/07 15:09:20;;;;;;;39.67;21.55;;;435.20;2355.20;;;;;;4845252;29;20037;-81
2022/04/07 15:11:47;;;;;;;31.77;20.33;;;435.20;2355.20;;;;;;4845901;29;20379;-80
2022/04/07 15:14:13;;;;;;;46.40;30.35;;;410.50;2355.20;;;;;;4845418;29;20112;-81
2022/04/07 15:16:39;;;;;;;37.05;20.90;;;410.20;2355.20;;;;;;4862067;29;20066;-80
2022/04/07 15:19:24;;;;;;;71.75;54.60;;;410.20;2355.20;;;;;;4845186;29;20122;-81
2022/04/07 15:22:02;;;;;;;100.20;67.72;;;410.00;2355.20;;;;;;4845071;29;20041;-83
2022/04/07 15:24:28;;;;;;;138.35;103.20;;;410.00;2355.20;;;;;;4845301;29;20029;-79
2022/04/07 15:26:58;;;;;;;102.28;75.50;;;409.90;2355.20;;;;;;4845315;29;20036;-81
2022/04/07 15:30:26;;;;;;;55.83;39.10;;;409.70;2355.20;;;;;;4845593;29;20120;-84
2022/04/07 15:33:15;;;;;;;47.15;32.47;;;409.70;2355.20;;;;;;4839095;29;20033;-80
2022/04/07 15:35:46;;;;;;;56.10;44.13;;;384.80;2329.60;;;;;;4859532;29;20124;-82
2022/04/07 15:38:18;;;;;;;48.47;31.70;;;409.60;2355.20;;;;;;4853593;29;20450;-81
2022/04/07 15:51:40;;;;;;;71.65;53.53;;;384.00;2329.60;;;;;;4822780;29;20107;-82
2022/04/07 15:55:03;;;;;;;42.53;28.05;;;359.20;2329.60;;;;;;4843237;29;20041;-82
2022/04/07 15:57:33;;;;;;;42.75;32.28;;;359.00;2329.60;;;;;;4785145;29;20399;-82
2022/04/07 16:00:10;;;;;;;62.25;43.90;;;359.00;2329.60;;;;;;4859242;29;20037;-84
2022/04/07 16:03:07;;;;;;;59.00;45.22;;;359.00;2329.60;;;;;;4844185;29;20033;-84
2022/04/07 16:05:49;;;;;;;66.90;47.20;;;359.00;2329.60;;;;;;4843257;29;20046;-81
2022/04/07 16:08:15;;;;;;;55.83;41.80;;;358.90;2278.40;;;;;;4844821;29;20034;-81
2022/04/07 16:10:48;;;;;;;60.25;47.63;;;358.80;2329.60;;;;;;4829917;29;20046;-82
2022/04/07 16:13:44;;;;;;;66.93;49.72;;;358.90;2329.60;;;;;;4844912;29;20070;-83
2022/04/07 16:16:36;;;;;;;73.53;50.47;;;359.00;2329.60;;;;;;4842229;29;20029;-82
2022/04/07 16:19:28;;;;;;;69.22;53.22;;;359.10;2329.60;;;;;;4844299;29;20033;-81
2022/04/07 16:22:15;;;;;;;67.63;46.83;;;358.70;2329.60;;;;;;4844762;29;20443;-84
2022/04/07 16:25:10;;;;;;;60.00;39.00;;;359.00;2329.60;;;;;;4831654;29;20041;-83
2022/04/07 16:28:14;;;;;;;68.85;50.40;;;358.90;2329.60;;;;;;4838000;29;20121;-81
2022/04/07 16:31:01;;;;;;;59.35;38.70;;;359.00;2252.80;;;;;;4842007;29;20048;-83
2022/04/07 16:33:35;;;;;;;52.45;35.58;;;359.00;2278.40;;;;;;4853183;29;20060;-84
2022/04/07 16:36:02;;;;;;;36.97;22.65;;;359.00;2073.60;;;;;;4862836;29;20520;-84
2022/04/07 16:38:27;;;;;;;28.73;17.65;;;359.00;2329.60;;;;;;4863108;29;20033;-84
2022/04/07 16:40:54;;;;;;;26.85;18.58;;;358.90;2329.60;;;;;;4862527;29;20037;-82
2022/04/07 16:43:21;;;;;;;15.70;10.27;;;358.90;2329.60;;;;;;4849235;29;20129;-82
2022/04/07 16:45:47;;;;;;;19.40;9.52;;;358.80;2329.60;;;;;;4843512;29;20045;-81
2022/04/07 16:48:17;;;;;;;11.70;8.43;;;358.70;2329.60;;;;;;4845035;29;20124;-81
2022/04/07 16:55:14;;;;;;;;;;;;;;;;;;;;;
2022/04/07 17:28:41;;;;;;;;;;;;;;;;;;;;;
2022/04/07 17:31:10;;;;;;;16.38;11.13;;;358.40;2329.60;;;;;;4863645;29;20032;-84
2022/04/07 17:33:45;;;;;;;17.52;10.60;;;358.40;2329.60;;;;;;4847128;29;20463;-82
2022/04/07 17:36:58;;;;;;;21.77;14.80;;;333.70;2329.60;;;;;;4846916;29;20048;-81
2022/04/07 17:39:44;;;;;;;22.65;14.93;;;333.70;2329.60;;;;;;4850376;29;20040;-83
2022/04/07 17:42:33;;;;;;;27.60;21.08;;;333.50;2329.60;;;;;;4859583;29;20032;-83
2022/04/07 17:45:32;;;;;;;27.83;19.45;;;333.50;2329.60;;;;;;4864791;29;20040;-83
2022/04/07 17:48:07;;;;;;;50.67;36.25;;;333.40;2329.60;;;;;;4862449;29;20402;-82
2022/04/07 17:50:42;;;;;;;50.00;24.73;;;333.50;2329.60;;;;;;4865021;29;20037;-82
2022/04/07 17:53:38;;;;;;;43.95;36.25;;;333.40;2329.60;;;;;;4865251;29;20069;-81
2022/04/07 17:56:45;;;;;;;60.50;48.97;;;333.50;2329.60;;;;;;4864990;29;20056;-86
2022/04/07 18:03:51;;;;;;;;;;;;;;;;;;;;;
2022/04/07 18:13:32;;;;;;;17.27;8.48;;;333.30;2329.60;;;;;;4842871;29;20028;-85
2022/04/07 18:20:13;;;;;;;55.10;39.90;;;333.10;2329.60;;;;;;4787976;30;20104;-85
2022/04/07 18:23:06;;;;;;;69.43;48.70;;;333.20;2329.60;;;;;;4756773;29;20035;-82
2022/04/07 18:28:50;;;;;;;44.40;31.92;;;333.10;1945.60;;;;;;4881330;29;20089;-80
2022/04/07 18:31:16;;;;;;;33.00;24.17;;;333.20;2329.60;;;;;;4865083;29;20029;-84
2022/04/07 18:33:42;;;;;;;33.60;24.88;;;333.10;2329.60;;;;;;4864464;29;20116;-80
2022/04/07 18:36:08;;;;;;;37.08;27.83;;;333.20;2329.60;;;;;;4864661;29;20124;-80
2022/04/07 18:38:34;;;;;;;37.22;29.15;;;333.20;2329.60;;;;;;4865075;29;20478;-80
2022/04/07 18:41:09;;;;;;;45.72;31.98;;;333.30;2329.60;;;;;;4864356;29;20033;-85
2022/04/07 18:43:44;;;;;;;52.30;38.80;;;333.30;2022.40;;;;;;4864252;29;20450;-83
2022/04/07 18:46:41;;;;;;;59.70;44.35;;;333.30;2150.40;;;;;;4863667;29;20025;-83
2022/04/07 18:49:27;;;;;;;63.15;45.33;;;333.30;2329.60;;;;;;4864685;29;20032;-85
2022/04/07 18:51:56;;;;;;;65.13;44.13;;;333.10;2329.60;;;;;;4847765;29;20034;-82
2022/04/07 18:54:22;;;;;;;79.60;50.15;;;333.20;2329.60;;;;;;4852267;29;20033;-82
2022/04/07 18:56:52;;;;;;;71.50;45.75;;;333.20;2124.80;;;;;;4845979;29;20068;-84
2022/04/07 18:59:19;;;;;;;60.42;38.30;;;333.20;2329.60;;;;;;4830667;29;20124;-81
2022/04/07 19:01:45;;;;;;;63.83;41.83;;;333.20;2329.60;;;;;;4863894;29;20040;-84
2022/04/07 19:04:12;;;;;;;71.20;53.28;;;333.20;2329.60;;;;;;4880869;29;20036;-82
2022/04/07 19:06:45;;;;;;;72.72;56.58;;;333.10;2329.60;;;;;;4864207;29;20025;-81
2022/04/07 19:09:20;;;;;;;75.00;61.97;;;333.00;2329.60;;;;;;4849412;29;20401;-85
2022/04/07 19:11:49;;;;;;;90.55;74.43;;;333.00;2329.60;;;;;;4864201;29;20025;-83
2022/04/07 19:14:15;;;;;;;80.78;67.00;;;333.00;2329.60;;;;;;4863811;29;20036;-83
2022/04/07 19:16:41;;;;;;;63.78;56.78;;;333.00;2329.60;;;;;;4863932;29;20037;-82
2022/04/07 19:19:15;;;;;;;60.03;49.90;;;332.90;2329.60;;;;;;4880537;29;20041;-82
2022/04/07 19:21:41;;;;;;;54.00;47.20;;;332.80;2329.60;;;;;;4848572;29;20033;-86
2022/04/07 19:27:48;;;;;;;45.35;36.88;;;332.80;2329.60;;;;;;4873485;29;20478;-83
2022/04/07 19:30:17;;;;;;;53.67;42.28;;;332.80;2329.60;;;;;;4847463;29;20043;-84
2022/04/07 19:33:09;;;;;;;51.95;39.22;;;332.80;2329.60;;;;;;4863842;29;20044;-86
2022/04/07 19:39:27;;;;;;;31.83;23.67;;;308.00;2304.00;;;;;;4880552;29;20079;-84
2022/04/07 19:42:14;;;;;;;48.38;35.03;;;307.80;2304.00;;;;;;4823512;29;20054;-80
2022/04/07 19:45:10;;;;;;;102.22;57.58;;;307.80;2304.00;;;;;;4821653;29;20106;-87
2022/04/07 19:55:49;;;;;;;97.18;64.70;;;307.70;2304.00;;;;;;4793458;29;20110;-86
2022/04/07 19:58:51;;;;;;;95.45;67.55;;;307.60;2304.00;;;;;;4817735;29;20026;-85
2022/04/07 20:01:33;;;;;;;121.20;83.22;;;307.50;2304.00;;;;;;4801643;29;20159;-87
2022/04/07 20:04:02;;;;;;;96.68;74.25;;;307.60;2304.00;;;;;;4809996;29;20110;-86
2022/04/07 20:06:38;;;;;;;76.20;55.72;;;307.40;2304.00;;;;;;4878308;29;20037;-84
2022/04/07 20:12:01;;;;;;;64.43;48.20;;;307.40;2022.40;;;;;;4822737;29;20073;-84
2022/04/07 20:14:30;;;;;;;69.70;53.03;;;307.30;2304.00;;;;;;4793242;29;20200;-85
2022/04/07 20:17:02;;;;;;;71.82;54.45;;;307.40;2304.00;;;;;;4789497;29;20043;-85
2022/04/07 20:19:32;;;;;;;94.53;71.07;;;282.30;2278.40;;;;;;4789526;29;20046;-84
2022/04/07 20:22:23;;;;;;;84.13;66.82;;;307.20;2304.00;;;;;;4804982;29;20472;-84
2022/04/07 20:25:58;;;;;;;105.05;72.97;;;282.50;2150.40;;;;;;4804727;29;20035;-86
2022/04/07 20:28:46;;;;;;;98.72;64.88;;;282.50;2278.40;;;;;;4801589;29;20167;-87
2022/04/07 20:31:53;;;;;;;114.63;69.35;;;282.50;2278.40;;;;;;4805487;29;20095;-88
2022/04/07 20:34:21;;;;;;;107.50;68.05;;;282.40;2278.40;;;;;;4746068;30;20481;-83
2022/04/07 20:40:24;;;;;;;104.70;68.00;;;282.30;2278.40;;;;;;4767840;30;20055;-84
2022/04/07 20:43:12;;;;;;;92.95;61.30;;;282.30;2278.40;;;;;;4794160;29;20837;-85
2022/04/07 20:45:50;;;;;;;102.95;61.75;;;282.30;2278.40;;;;;;4811258;29;20414;-83
2022/04/07 20:48:25;;;;;;;79.75;48.38;;;282.40;1920.00;;;;;;4861412;29;20062;-81
2022/04/07 20:50:56;;;;;;;86.07;59.20;;;307.80;2304.00;;;;;;4829228;29;20697;-87
2022/04/07 20:53:24;;;;;;;93.80;66.55;;;282.40;2278.40;;;;;;4875117;29;20108;-86
2022/04/07 20:56:04;;;;;;;103.00;79.35;;;282.40;2278.40;;;;;;4844693;29;20034;-86
2022/04/07 20:59:12;;;;;;;87.20;66.35;;;282.50;2278.40;;;;;;4847153;29;20097;-85
2022/04/07 21:01:42;;;;;;;98.57;67.32;;;282.50;2278.40;;;;;;4844975;29;20107;-84
2022/04/07 21:04:09;;;;;;;96.97;68.18;;;282.40;2278.40;;;;;;4846247;29;20038;-84